sensor_id;sensor_type;location;lat;lon;timestamp;P1;durP1;ratioP1;P2;durP2;ratioP2
4583;SDS011;2304;47.606;12.186;2023-05-19T00:05:04;13.20;;;5.80;;
4583;SDS011;2304;47.606;12.186;2023-05-19T00:10:07;7.80;;;4.90;;
4583;SDS011;2304;47.606;12.186;2023-05-19T00:15:12;9.70;;;5.23;;
4583;SDS011;2304;47.606;12.186;2023-05-19T00:20:14;8.00;;;5.40;;
4583;SDS011;2304;47.606;12.186;2023-05-19T00:25:16;9.40;;;6.00;;
4583;SDS011;2304;47.606;12.186;2023-05-19T00:30:19;9.33;;;6.17;;
4583;SDS011;2304;47.606;12.186;2023-05-19T00:35:22;11.50;;;5.70;;
4583;SDS011;2304;47.606;12.186;2023-05-19T00:40:24;13.23;;;6.17;;
4583;SDS011;2304;47.606;12.186;2023-05-19T00:45:28;16.43;;;6.63;;
4583;SDS011;2304;47.606;12.186;2023-05-19T00:50:30;12.77;;;6.30;;
4583;SDS011;2304;47.606;12.186;2023-05-19T00:55:32;13.57;;;6.67;;
4583;SDS011;2304;47.606;12.186;2023-05-19T01:00:38;10.93;;;5.97;;
4583;SDS011;2304;47.606;12.186;2023-05-19T01:05:41;13.17;;;6.67;;
4583;SDS011;2304;47.606;12.186;2023-05-19T01:10:43;12.00;;;6.53;;
4583;SDS011;2304;47.606;12.186;2023-05-19T01:15:51;15.43;;;6.37;;
4583;SDS011;2304;47.606;12.186;2023-05-19T01:21:05;8.50;;;5.30;;
4583;SDS011;2304;47.606;12.186;2023-05-19T01:26:29;13.37;;;6.33;;
4583;SDS011;2304;47.606;12.186;2023-05-19T01:31:46;11.27;;;6.80;;
4583;SDS011;2304;47.606;12.186;2023-05-19T01:36:49;11.70;;;6.90;;
4583;SDS011;2304;47.606;12.186;2023-05-19T01:41:54;10.43;;;6.40;;
4583;SDS011;2304;47.606;12.186;2023-05-19T01:46:59;12.10;;;6.90;;
4583;SDS011;2304;47.606;12.186;2023-05-19T01:52:01;16.90;;;7.13;;
4583;SDS011;2304;47.606;12.186;2023-05-19T01:57:06;15.47;;;6.73;;
4583;SDS011;2304;47.606;12.186;2023-05-19T02:02:19;11.80;;;7.00;;
4583;SDS011;2304;47.606;12.186;2023-05-19T02:07:30;16.60;;;7.87;;
4583;SDS011;2304;47.606;12.186;2023-05-19T02:12:39;12.27;;;6.17;;
4583;SDS011;2304;47.606;12.186;2023-05-19T02:17:43;10.27;;;6.00;;
4583;SDS011;2304;47.606;12.186;2023-05-19T02:22:47;12.47;;;6.20;;
4583;SDS011;2304;47.606;12.186;2023-05-19T02:27:49;16.23;;;7.10;;
4583;SDS011;2304;47.606;12.186;2023-05-19T02:32:53;13.27;;;5.63;;
4583;SDS011;2304;47.606;12.186;2023-05-19T02:37:55;11.30;;;6.30;;
4583;SDS011;2304;47.606;12.186;2023-05-19T02:42:57;9.33;;;5.67;;
4583;SDS011;2304;47.606;12.186;2023-05-19T02:48:01;10.83;;;5.90;;
4583;SDS011;2304;47.606;12.186;2023-05-19T02:53:03;11.77;;;6.33;;
4583;SDS011;2304;47.606;12.186;2023-05-19T02:58:04;13.70;;;7.17;;
4583;SDS011;2304;47.606;12.186;2023-05-19T03:03:08;11.70;;;6.80;;
4583;SDS011;2304;47.606;12.186;2023-05-19T03:08:09;14.63;;;7.17;;
4583;SDS011;2304;47.606;12.186;2023-05-19T03:13:11;11.87;;;6.90;;
4583;SDS011;2304;47.606;12.186;2023-05-19T03:18:15;15.67;;;6.77;;
4583;SDS011;2304;47.606;12.186;2023-05-19T03:23:17;12.97;;;7.17;;
4583;SDS011;2304;47.606;12.186;2023-05-19T03:28:19;14.77;;;7.53;;
4583;SDS011;2304;47.606;12.186;2023-05-19T03:33:23;9.77;;;6.57;;
4583;SDS011;2304;47.606;12.186;2023-05-19T03:38:26;11.90;;;6.83;;
4583;SDS011;2304;47.606;12.186;2023-05-19T03:43:28;14.50;;;7.50;;
4583;SDS011;2304;47.606;12.186;2023-05-19T03:48:31;11.57;;;6.83;;
4583;SDS011;2304;47.606;12.186;2023-05-19T03:53:33;12.90;;;6.90;;
4583;SDS011;2304;47.606;12.186;2023-05-19T03:58:35;12.47;;;6.03;;
4583;SDS011;2304;47.606;12.186;2023-05-19T04:03:39;13.23;;;7.60;;
4583;SDS011;2304;47.606;12.186;2023-05-19T04:08:41;11.10;;;6.83;;
4583;SDS011;2304;47.606;12.186;2023-05-19T04:13:44;11.43;;;7.50;;
4583;SDS011;2304;47.606;12.186;2023-05-19T04:18:47;12.60;;;6.70;;
4583;SDS011;2304;47.606;12.186;2023-05-19T04:23:49;17.50;;;7.30;;
4583;SDS011;2304;47.606;12.186;2023-05-19T04:28:51;16.40;;;6.50;;
4583;SDS011;2304;47.606;12.186;2023-05-19T04:33:56;15.33;;;7.03;;
4583;SDS011;2304;47.606;12.186;2023-05-19T04:39:00;14.37;;;7.43;;
4583;SDS011;2304;47.606;12.186;2023-05-19T04:44:03;17.20;;;7.60;;
4583;SDS011;2304;47.606;12.186;2023-05-19T04:49:07;13.73;;;7.90;;
4583;SDS011;2304;47.606;12.186;2023-05-19T04:54:11;14.57;;;8.00;;
4583;SDS011;2304;47.606;12.186;2023-05-19T04:59:13;12.60;;;7.37;;
4583;SDS011;2304;47.606;12.186;2023-05-19T05:04:16;10.80;;;7.17;;
4583;SDS011;2304;47.606;12.186;2023-05-19T05:09:18;13.63;;;7.27;;
4583;SDS011;2304;47.606;12.186;2023-05-19T05:14:20;11.33;;;7.00;;
4583;SDS011;2304;47.606;12.186;2023-05-19T05:19:23;12.10;;;6.70;;
4583;SDS011;2304;47.606;12.186;2023-05-19T05:24:26;10.90;;;7.30;;
4583;SDS011;2304;47.606;12.186;2023-05-19T05:29:28;9.43;;;6.50;;
4583;SDS011;2304;47.606;12.186;2023-05-19T05:34:31;12.43;;;7.30;;
4583;SDS011;2304;47.606;12.186;2023-05-19T05:39:34;15.73;;;7.47;;
4583;SDS011;2304;47.606;12.186;2023-05-19T05:44:36;12.40;;;7.10;;
4583;SDS011;2304;47.606;12.186;2023-05-19T05:49:39;15.50;;;7.53;;
4583;SDS011;2304;47.606;12.186;2023-05-19T05:54:43;27.13;;;7.70;;
4583;SDS011;2304;47.606;12.186;2023-05-19T05:59:45;12.57;;;7.77;;
4583;SDS011;2304;47.606;12.186;2023-05-19T06:04:48;11.47;;;7.77;;
4583;SDS011;2304;47.606;12.186;2023-05-19T06:09:50;10.03;;;7.23;;
4583;SDS011;2304;47.606;12.186;2023-05-19T06:14:52;12.87;;;7.30;;
4583;SDS011;2304;47.606;12.186;2023-05-19T06:19:55;12.90;;;7.70;;
4583;SDS011;2304;47.606;12.186;2023-05-19T06:24:57;11.47;;;7.60;;
4583;SDS011;2304;47.606;12.186;2023-05-19T06:29:58;11.27;;;6.70;;
4583;SDS011;2304;47.606;12.186;2023-05-19T06:35:02;15.13;;;6.50;;
4583;SDS011;2304;47.606;12.186;2023-05-19T06:40:04;12.30;;;7.60;;
4583;SDS011;2304;47.606;12.186;2023-05-19T06:45:07;15.40;;;8.30;;
4583;SDS011;2304;47.606;12.186;2023-05-19T06:50:11;10.80;;;7.40;;
4583;SDS011;2304;47.606;12.186;2023-05-19T06:55:13;11.83;;;6.20;;
4583;SDS011;2304;47.606;12.186;2023-05-19T07:00:15;10.07;;;6.50;;
4583;SDS011;2304;47.606;12.186;2023-05-19T07:05:19;12.80;;;6.90;;
4583;SDS011;2304;47.606;12.186;2023-05-19T07:10:21;10.80;;;7.03;;
4583;SDS011;2304;47.606;12.186;2023-05-19T07:15:23;14.03;;;7.13;;
4583;SDS011;2304;47.606;12.186;2023-05-19T07:20:26;11.93;;;6.43;;
4583;SDS011;2304;47.606;12.186;2023-05-19T07:25:28;8.97;;;6.70;;
4583;SDS011;2304;47.606;12.186;2023-05-19T07:30:30;12.37;;;7.60;;
4583;SDS011;2304;47.606;12.186;2023-05-19T07:35:33;12.00;;;7.33;;
4583;SDS011;2304;47.606;12.186;2023-05-19T07:40:35;10.30;;;6.83;;
4583;SDS011;2304;47.606;12.186;2023-05-19T07:45:37;13.77;;;7.00;;
4583;SDS011;2304;47.606;12.186;2023-05-19T07:50:40;13.17;;;7.40;;
4583;SDS011;2304;47.606;12.186;2023-05-19T07:55:42;9.93;;;6.47;;
4583;SDS011;2304;47.606;12.186;2023-05-19T08:00:44;9.60;;;7.20;;
4583;SDS011;2304;47.606;12.186;2023-05-19T08:05:47;13.73;;;7.60;;
4583;SDS011;2304;47.606;12.186;2023-05-19T08:10:49;11.40;;;6.77;;
4583;SDS011;2304;47.606;12.186;2023-05-19T08:15:50;8.57;;;6.20;;
4583;SDS011;2304;47.606;12.186;2023-05-19T08:20:55;10.80;;;6.63;;
4583;SDS011;2304;47.606;12.186;2023-05-19T08:25:56;14.23;;;8.03;;
4583;SDS011;2304;47.606;12.186;2023-05-19T08:30:58;12.03;;;6.33;;
4583;SDS011;2304;47.606;12.186;2023-05-19T08:36:02;13.37;;;7.10;;
4583;SDS011;2304;47.606;12.186;2023-05-19T08:41:04;14.10;;;7.07;;
4583;SDS011;2304;47.606;12.186;2023-05-19T08:46:06;9.43;;;7.03;;
4583;SDS011;2304;47.606;12.186;2023-05-19T08:51:10;11.80;;;7.37;;
4583;SDS011;2304;47.606;12.186;2023-05-19T08:56:31;9.67;;;6.60;;
4583;SDS011;2304;47.606;12.186;2023-05-19T09:01:33;14.23;;;6.93;;
4583;SDS011;2304;47.606;12.186;2023-05-19T09:06:37;12.93;;;6.57;;
4583;SDS011;2304;47.606;12.186;2023-05-19T09:11:43;9.53;;;6.50;;
4583;SDS011;2304;47.606;12.186;2023-05-19T09:16:46;11.57;;;6.40;;
4583;SDS011;2304;47.606;12.186;2023-05-19T09:21:57;8.80;;;6.70;;
4583;SDS011;2304;47.606;12.186;2023-05-19T09:27:02;7.93;;;6.00;;
4583;SDS011;2304;47.606;12.186;2023-05-19T09:32:04;9.23;;;5.50;;
4583;SDS011;2304;47.606;12.186;2023-05-19T09:37:07;7.70;;;6.00;;
4583;SDS011;2304;47.606;12.186;2023-05-19T09:42:12;9.80;;;5.90;;
4583;SDS011;2304;47.606;12.186;2023-05-19T09:47:15;10.50;;;6.40;;
4583;SDS011;2304;47.606;12.186;2023-05-19T09:52:19;7.93;;;5.90;;
4583;SDS011;2304;47.606;12.186;2023-05-19T09:57:24;10.23;;;5.83;;
4583;SDS011;2304;47.606;12.186;2023-05-19T10:02:27;8.57;;;5.90;;
4583;SDS011;2304;47.606;12.186;2023-05-19T10:07:31;7.57;;;5.60;;
4583;SDS011;2304;47.606;12.186;2023-05-19T10:12:34;7.90;;;5.37;;
4583;SDS011;2304;47.606;12.186;2023-05-19T10:17:37;7.73;;;4.73;;
4583;SDS011;2304;47.606;12.186;2023-05-19T10:22:41;7.60;;;5.63;;
4583;SDS011;2304;47.606;12.186;2023-05-19T10:27:45;9.00;;;5.40;;
4583;SDS011;2304;47.606;12.186;2023-05-19T10:32:52;8.70;;;5.40;;
4583;SDS011;2304;47.606;12.186;2023-05-19T10:38:00;11.43;;;5.27;;
4583;SDS011;2304;47.606;12.186;2023-05-19T10:43:14;8.13;;;5.47;;
4583;SDS011;2304;47.606;12.186;2023-05-19T10:48:21;7.53;;;5.90;;
4583;SDS011;2304;47.606;12.186;2023-05-19T10:53:28;8.60;;;5.30;;
4583;SDS011;2304;47.606;12.186;2023-05-19T10:58:38;9.17;;;4.93;;
4583;SDS011;2304;47.606;12.186;2023-05-19T11:03:49;8.00;;;5.33;;
4583;SDS011;2304;47.606;12.186;2023-05-19T11:08:54;11.30;;;5.77;;
4583;SDS011;2304;47.606;12.186;2023-05-19T11:13:59;8.73;;;5.77;;
4583;SDS011;2304;47.606;12.186;2023-05-19T11:19:01;7.67;;;5.20;;
4583;SDS011;2304;47.606;12.186;2023-05-19T11:24:08;7.43;;;5.87;;
4583;SDS011;2304;47.606;12.186;2023-05-19T11:29:09;8.07;;;5.23;;
4583;SDS011;2304;47.606;12.186;2023-05-19T11:34:11;8.90;;;5.50;;
4583;SDS011;2304;47.606;12.186;2023-05-19T11:39:15;8.30;;;5.60;;
4583;SDS011;2304;47.606;12.186;2023-05-19T11:44:18;10.53;;;5.77;;
4583;SDS011;2304;47.606;12.186;2023-05-19T11:49:20;9.37;;;6.13;;
4583;SDS011;2304;47.606;12.186;2023-05-19T11:54:27;8.00;;;5.50;;
4583;SDS011;2304;47.606;12.186;2023-05-19T11:59:31;7.17;;;6.37;;
4583;SDS011;2304;47.606;12.186;2023-05-19T12:04:34;11.17;;;6.63;;
4583;SDS011;2304;47.606;12.186;2023-05-19T12:09:37;8.23;;;6.40;;
4583;SDS011;2304;47.606;12.186;2023-05-19T12:14:40;8.73;;;6.07;;
4583;SDS011;2304;47.606;12.186;2023-05-19T12:19:42;9.63;;;6.00;;
4583;SDS011;2304;47.606;12.186;2023-05-19T12:24:46;7.70;;;5.13;;
4583;SDS011;2304;47.606;12.186;2023-05-19T12:29:49;11.60;;;5.47;;
4583;SDS011;2304;47.606;12.186;2023-05-19T12:34:52;10.33;;;5.10;;
4583;SDS011;2304;47.606;12.186;2023-05-19T12:39:56;10.47;;;6.03;;
4583;SDS011;2304;47.606;12.186;2023-05-19T12:44:59;9.37;;;6.13;;
4583;SDS011;2304;47.606;12.186;2023-05-19T12:50:04;10.77;;;5.83;;
4583;SDS011;2304;47.606;12.186;2023-05-19T12:55:09;10.53;;;6.30;;
4583;SDS011;2304;47.606;12.186;2023-05-19T13:00:12;8.43;;;5.67;;
4583;SDS011;2304;47.606;12.186;2023-05-19T13:05:16;7.70;;;5.50;;
4583;SDS011;2304;47.606;12.186;2023-05-19T13:10:19;9.67;;;6.30;;
4583;SDS011;2304;47.606;12.186;2023-05-19T13:15:21;8.10;;;6.27;;
4583;SDS011;2304;47.606;12.186;2023-05-19T13:20:25;9.93;;;6.20;;
4583;SDS011;2304;47.606;12.186;2023-05-19T13:25:28;9.67;;;6.30;;
4583;SDS011;2304;47.606;12.186;2023-05-19T13:30:30;10.97;;;6.30;;
4583;SDS011;2304;47.606;12.186;2023-05-19T13:35:32;9.50;;;7.67;;
4583;SDS011;2304;47.606;12.186;2023-05-19T13:40:37;9.27;;;6.37;;
4583;SDS011;2304;47.606;12.186;2023-05-19T13:45:39;8.90;;;6.50;;
4583;SDS011;2304;47.606;12.186;2023-05-19T13:50:43;9.93;;;6.87;;
4583;SDS011;2304;47.606;12.186;2023-05-19T13:55:47;10.40;;;7.10;;
4583;SDS011;2304;47.606;12.186;2023-05-19T14:00:51;8.33;;;6.77;;
4583;SDS011;2304;47.606;12.186;2023-05-19T14:05:55;7.70;;;5.87;;
4583;SDS011;2304;47.606;12.186;2023-05-19T14:10:58;9.33;;;6.60;;
4583;SDS011;2304;47.606;12.186;2023-05-19T14:16:00;15.70;;;7.10;;
4583;SDS011;2304;47.606;12.186;2023-05-19T14:21:02;8.60;;;6.30;;
4583;SDS011;2304;47.606;12.186;2023-05-19T14:26:05;9.60;;;6.57;;
4583;SDS011;2304;47.606;12.186;2023-05-19T14:31:09;9.60;;;6.13;;
4583;SDS011;2304;47.606;12.186;2023-05-19T14:36:11;10.97;;;6.27;;
4583;SDS011;2304;47.606;12.186;2023-05-19T14:41:14;7.80;;;6.17;;
4583;SDS011;2304;47.606;12.186;2023-05-19T14:46:16;10.07;;;7.10;;
4583;SDS011;2304;47.606;12.186;2023-05-19T14:51:18;13.73;;;6.83;;
4583;SDS011;2304;47.606;12.186;2023-05-19T14:56:21;10.53;;;6.90;;
4583;SDS011;2304;47.606;12.186;2023-05-19T15:01:23;8.03;;;7.17;;
4583;SDS011;2304;47.606;12.186;2023-05-19T15:06:25;14.23;;;8.47;;
4583;SDS011;2304;47.606;12.186;2023-05-19T15:11:28;10.67;;;7.73;;
4583;SDS011;2304;47.606;12.186;2023-05-19T15:16:30;12.53;;;7.23;;
4583;SDS011;2304;47.606;12.186;2023-05-19T15:21:32;12.57;;;8.50;;
4583;SDS011;2304;47.606;12.186;2023-05-19T15:26:35;16.20;;;7.67;;
4583;SDS011;2304;47.606;12.186;2023-05-19T15:31:37;15.53;;;8.30;;
4583;SDS011;2304;47.606;12.186;2023-05-19T15:36:39;11.50;;;8.17;;
4583;SDS011;2304;47.606;12.186;2023-05-19T15:41:42;15.33;;;8.60;;
4583;SDS011;2304;47.606;12.186;2023-05-19T15:46:44;10.43;;;7.73;;
4583;SDS011;2304;47.606;12.186;2023-05-19T15:51:45;10.70;;;7.87;;
4583;SDS011;2304;47.606;12.186;2023-05-19T15:56:49;8.83;;;7.73;;
4583;SDS011;2304;47.606;12.186;2023-05-19T16:01:50;11.90;;;8.40;;
4583;SDS011;2304;47.606;12.186;2023-05-19T16:06:52;11.77;;;8.00;;
4583;SDS011;2304;47.606;12.186;2023-05-19T16:11:55;11.10;;;8.60;;
4583;SDS011;2304;47.606;12.186;2023-05-19T16:16:57;12.03;;;8.00;;
4583;SDS011;2304;47.606;12.186;2023-05-19T16:21:59;9.90;;;7.27;;
4583;SDS011;2304;47.606;12.186;2023-05-19T16:27:02;11.13;;;8.47;;
4583;SDS011;2304;47.606;12.186;2023-05-19T16:32:05;14.80;;;6.93;;
4583;SDS011;2304;47.606;12.186;2023-05-19T16:37:07;12.57;;;8.20;;
4583;SDS011;2304;47.606;12.186;2023-05-19T16:42:10;13.97;;;9.43;;
4583;SDS011;2304;47.606;12.186;2023-05-19T16:47:12;9.90;;;8.33;;
4583;SDS011;2304;47.606;12.186;2023-05-19T16:52:13;12.20;;;8.27;;
4583;SDS011;2304;47.606;12.186;2023-05-19T16:57:17;14.37;;;9.40;;
4583;SDS011;2304;47.606;12.186;2023-05-19T17:02:18;13.17;;;9.30;;
4583;SDS011;2304;47.606;12.186;2023-05-19T17:07:20;18.20;;;11.63;;
4583;SDS011;2304;47.606;12.186;2023-05-19T17:12:23;13.03;;;9.50;;
4583;SDS011;2304;47.606;12.186;2023-05-19T17:17:25;12.53;;;8.80;;
4583;SDS011;2304;47.606;12.186;2023-05-19T17:22:27;14.37;;;9.70;;
4583;SDS011;2304;47.606;12.186;2023-05-19T17:27:30;14.73;;;9.93;;
4583;SDS011;2304;47.606;12.186;2023-05-19T17:32:33;13.77;;;10.10;;
4583;SDS011;2304;47.606;12.186;2023-05-19T17:37:38;13.87;;;9.83;;
4583;SDS011;2304;47.606;12.186;2023-05-19T17:42:41;14.57;;;10.00;;
4583;SDS011;2304;47.606;12.186;2023-05-19T17:47:43;19.77;;;10.50;;
4583;SDS011;2304;47.606;12.186;2023-05-19T17:52:45;13.53;;;10.63;;
4583;SDS011;2304;47.606;12.186;2023-05-19T17:57:49;11.63;;;9.60;;
4583;SDS011;2304;47.606;12.186;2023-05-19T18:02:51;12.90;;;10.20;;
4583;SDS011;2304;47.606;12.186;2023-05-19T18:07:55;12.27;;;9.77;;
4583;SDS011;2304;47.606;12.186;2023-05-19T18:12:59;13.07;;;10.47;;
4583;SDS011;2304;47.606;12.186;2023-05-19T18:18:01;13.30;;;10.00;;
4583;SDS011;2304;47.606;12.186;2023-05-19T18:23:04;16.00;;;10.20;;
4583;SDS011;2304;47.606;12.186;2023-05-19T18:28:07;16.20;;;14.50;;
4583;SDS011;2304;47.606;12.186;2023-05-19T18:33:10;15.80;;;10.43;;
4583;SDS011;2304;47.606;12.186;2023-05-19T18:38:12;16.53;;;11.13;;
4583;SDS011;2304;47.606;12.186;2023-05-19T18:43:15;15.83;;;10.93;;
4583;SDS011;2304;47.606;12.186;2023-05-19T18:48:17;15.43;;;11.90;;
4583;SDS011;2304;47.606;12.186;2023-05-19T18:53:20;12.83;;;9.87;;
4583;SDS011;2304;47.606;12.186;2023-05-19T18:58:23;15.00;;;11.03;;
4583;SDS011;2304;47.606;12.186;2023-05-19T19:03:25;16.03;;;11.10;;
4583;SDS011;2304;47.606;12.186;2023-05-19T19:08:27;15.60;;;10.77;;
4583;SDS011;2304;47.606;12.186;2023-05-19T19:13:30;18.73;;;10.93;;
4583;SDS011;2304;47.606;12.186;2023-05-19T19:18:32;13.07;;;11.30;;
4583;SDS011;2304;47.606;12.186;2023-05-19T19:23:35;13.90;;;11.03;;
4583;SDS011;2304;47.606;12.186;2023-05-19T19:28:38;16.03;;;10.87;;
4583;SDS011;2304;47.606;12.186;2023-05-19T19:33:40;14.27;;;10.70;;
4583;SDS011;2304;47.606;12.186;2023-05-19T19:38:42;15.63;;;12.23;;
4583;SDS011;2304;47.606;12.186;2023-05-19T19:43:46;15.63;;;11.80;;
4583;SDS011;2304;47.606;12.186;2023-05-19T19:48:47;31.97;;;11.53;;
4583;SDS011;2304;47.606;12.186;2023-05-19T19:53:50;14.50;;;11.50;;
4583;SDS011;2304;47.606;12.186;2023-05-19T19:58:53;18.50;;;11.30;;
4583;SDS011;2304;47.606;12.186;2023-05-19T20:03:56;17.57;;;12.67;;
4583;SDS011;2304;47.606;12.186;2023-05-19T20:08:59;15.70;;;10.90;;
4583;SDS011;2304;47.606;12.186;2023-05-19T20:14:02;17.13;;;11.60;;
4583;SDS011;2304;47.606;12.186;2023-05-19T20:19:04;15.60;;;11.67;;
4583;SDS011;2304;47.606;12.186;2023-05-19T20:24:05;14.97;;;12.27;;
4583;SDS011;2304;47.606;12.186;2023-05-19T20:29:09;14.40;;;11.63;;
4583;SDS011;2304;47.606;12.186;2023-05-19T20:34:10;15.97;;;13.80;;
4583;SDS011;2304;47.606;12.186;2023-05-19T20:39:12;17.80;;;12.03;;
4583;SDS011;2304;47.606;12.186;2023-05-19T20:44:15;14.97;;;12.37;;
4583;SDS011;2304;47.606;12.186;2023-05-19T20:49:18;17.27;;;12.30;;
4583;SDS011;2304;47.606;12.186;2023-05-19T20:54:19;16.57;;;12.00;;
4583;SDS011;2304;47.606;12.186;2023-05-19T20:59:22;16.53;;;12.07;;
4583;SDS011;2304;47.606;12.186;2023-05-19T21:04:24;16.77;;;11.43;;
4583;SDS011;2304;47.606;12.186;2023-05-19T21:09:26;14.27;;;10.87;;
4583;SDS011;2304;47.606;12.186;2023-05-19T21:14:29;16.00;;;11.80;;
4583;SDS011;2304;47.606;12.186;2023-05-19T21:19:31;15.50;;;11.03;;
4583;SDS011;2304;47.606;12.186;2023-05-19T21:24:34;17.17;;;13.40;;
4583;SDS011;2304;47.606;12.186;2023-05-19T21:29:37;14.67;;;11.70;;
4583;SDS011;2304;47.606;12.186;2023-05-19T21:34:38;17.10;;;12.00;;
4583;SDS011;2304;47.606;12.186;2023-05-19T21:39:40;17.17;;;11.37;;
4583;SDS011;2304;47.606;12.186;2023-05-19T21:44:43;16.40;;;12.67;;
4583;SDS011;2304;47.606;12.186;2023-05-19T21:49:45;16.40;;;12.40;;
4583;SDS011;2304;47.606;12.186;2023-05-19T21:54:47;17.47;;;12.97;;
4583;SDS011;2304;47.606;12.186;2023-05-19T21:59:52;16.20;;;11.80;;
4583;SDS011;2304;47.606;12.186;2023-05-19T22:04:54;19.90;;;11.63;;
4583;SDS011;2304;47.606;12.186;2023-05-19T22:09:56;16.33;;;11.40;;
4583;SDS011;2304;47.606;12.186;2023-05-19T22:14:59;19.27;;;12.47;;
4583;SDS011;2304;47.606;12.186;2023-05-19T22:20:02;16.67;;;12.10;;
4583;SDS011;2304;47.606;12.186;2023-05-19T22:25:04;14.00;;;11.00;;
4583;SDS011;2304;47.606;12.186;2023-05-19T22:30:08;17.90;;;11.87;;
4583;SDS011;2304;47.606;12.186;2023-05-19T22:35:10;16.80;;;11.50;;
4583;SDS011;2304;47.606;12.186;2023-05-19T22:40:12;15.60;;;11.17;;
4583;SDS011;2304;47.606;12.186;2023-05-19T22:45:15;16.43;;;11.57;;
4583;SDS011;2304;47.606;12.186;2023-05-19T22:50:17;16.70;;;12.00;;
4583;SDS011;2304;47.606;12.186;2023-05-19T22:55:19;19.50;;;12.80;;
4583;SDS011;2304;47.606;12.186;2023-05-19T23:00:23;15.23;;;11.60;;
4583;SDS011;2304;47.606;12.186;2023-05-19T23:05:24;17.07;;;11.63;;
4583;SDS011;2304;47.606;12.186;2023-05-19T23:10:26;16.93;;;13.00;;
4583;SDS011;2304;47.606;12.186;2023-05-19T23:15:29;16.53;;;11.40;;
4583;SDS011;2304;47.606;12.186;2023-05-19T23:20:31;13.30;;;11.60;;
4583;SDS011;2304;47.606;12.186;2023-05-19T23:25:34;14.57;;;10.33;;
4583;SDS011;2304;47.606;12.186;2023-05-19T23:30:37;16.60;;;11.97;;
4583;SDS011;2304;47.606;12.186;2023-05-19T23:35:39;17.10;;;11.63;;
4583;SDS011;2304;47.606;12.186;2023-05-19T23:40:41;14.40;;;11.27;;
4583;SDS011;2304;47.606;12.186;2023-05-19T23:45:44;14.87;;;10.80;;
4583;SDS011;2304;47.606;12.186;2023-05-19T23:50:46;13.70;;;10.47;;
4583;SDS011;2304;47.606;12.186;2023-05-19T23:55:48;13.90;;;9.90;;
